createdAt,value
2022-11-19T00:00:45.822Z,19.67
2022-11-19T00:03:14.740Z,16.52
2022-11-19T00:05:42.524Z,17.90
2022-11-19T00:08:10.232Z,18.15
2022-11-19T00:10:38.300Z,19.52
2022-11-19T00:13:07.056Z,18.67
2022-11-19T00:15:35.447Z,15.73
2022-11-19T00:18:02.772Z,15.47
2022-11-19T00:20:30.098Z,16.10
2022-11-19T00:23:00.277Z,16.85
2022-11-19T00:25:29.504Z,17.05
2022-11-19T00:27:57.746Z,17.95
2022-11-19T00:30:46.893Z,15.83
2022-11-19T00:33:10.989Z,14.90
2022-11-19T00:35:37.630Z,15.02
2022-11-19T00:38:04.137Z,15.20
2022-11-19T00:40:30.589Z,15.80
2022-11-19T00:43:15.524Z,17.90
2022-11-19T00:45:44.503Z,17.13
2022-11-19T00:48:11.104Z,15.48
2022-11-19T00:50:37.602Z,16.55
2022-11-19T00:53:04.106Z,15.80
2022-11-19T00:55:30.548Z,14.90
2022-11-19T00:57:57.005Z,15.40
2022-11-19T01:00:23.497Z,17.27
2022-11-19T01:02:49.950Z,18.50
2022-11-19T01:05:16.777Z,16.33
2022-11-19T01:07:43.254Z,16.67
2022-11-19T01:10:10.061Z,15.95
2022-11-19T01:12:56.529Z,15.43
2022-11-19T01:15:23.015Z,15.45
2022-11-19T01:17:49.445Z,18.75
2022-11-19T01:20:16.141Z,16.10
2022-11-19T01:22:42.845Z,19.13
2022-11-19T01:25:09.866Z,16.65
2022-11-19T01:27:36.332Z,18.30
2022-11-19T01:30:02.980Z,18.73
2022-11-19T01:32:29.421Z,15.90
2022-11-19T01:34:55.903Z,18.80
2022-11-19T01:37:22.411Z,20.33
2022-11-19T01:39:48.819Z,17.90
2022-11-19T01:42:53.821Z,19.83
2022-11-19T01:45:34.358Z,15.00
2022-11-19T01:48:14.644Z,16.70
2022-11-19T01:50:50.009Z,18.85
2022-11-19T01:53:19.227Z,17.25
2022-11-19T01:55:46.943Z,17.45
2022-11-19T01:58:17.528Z,17.90
2022-11-19T02:00:44.009Z,17.67
2022-11-19T02:03:12.593Z,14.30
2022-11-19T02:05:41.591Z,19.90
2022-11-19T02:08:11.252Z,19.40
2022-11-19T02:10:59.406Z,19.43
2022-11-19T02:13:36.831Z,19.23
2022-11-19T02:16:17.725Z,17.08
2022-11-19T02:18:54.308Z,18.75
2022-11-19T02:21:31.198Z,19.25
2022-11-19T02:24:38.883Z,19.83
2022-11-19T02:27:31.555Z,19.70
2022-11-19T02:30:19.044Z,19.25
2022-11-19T02:33:14.653Z,21.55
2022-11-19T02:35:51.132Z,22.48
2022-11-19T02:38:39.920Z,21.77
2022-11-19T02:41:33.638Z,23.50
2022-11-19T02:44:40.852Z,24.25
2022-11-19T02:47:12.052Z,21.65
2022-11-19T02:49:46.867Z,23.70
2022-11-19T02:52:17.456Z,20.03
2022-11-19T02:54:44.209Z,24.10
2022-11-19T02:57:12.879Z,19.75
2022-11-19T03:00:01.384Z,21.95
2022-11-19T03:02:54.279Z,22.10
2022-11-19T03:05:24.273Z,21.70
2022-11-19T03:07:50.937Z,22.40
2022-11-19T03:10:21.447Z,22.10
2022-11-19T03:13:21.556Z,22.67
2022-11-19T03:16:09.402Z,24.83
2022-11-19T03:18:50.175Z,23.33
2022-11-19T03:21:16.547Z,22.73
2022-11-19T03:23:48.700Z,26.77
2022-11-19T03:26:20.756Z,25.25
2022-11-19T03:28:49.130Z,26.58
2022-11-19T03:31:18.774Z,25.97
2022-11-19T03:33:49.991Z,26.05
2022-11-19T03:36:23.540Z,25.02
2022-11-19T03:38:55.083Z,25.63
2022-11-19T03:41:24.454Z,25.17
2022-11-19T03:43:57.015Z,25.20
2022-11-19T03:46:25.279Z,21.42
2022-11-19T03:48:54.943Z,21.20
2022-11-19T03:51:32.737Z,25.27
2022-11-19T03:53:59.258Z,28.25
2022-11-19T03:56:28.101Z,22.53
2022-11-19T03:58:54.527Z,23.60
2022-11-19T04:01:21.695Z,23.08
2022-11-19T04:04:08.214Z,19.83
2022-11-19T04:06:34.680Z,24.27
2022-11-19T04:09:01.322Z,23.20
2022-11-19T04:13:53.135Z,25.73
2022-11-19T04:16:19.545Z,24.60
2022-11-19T04:18:45.997Z,22.73
2022-11-19T04:21:12.581Z,22.08
2022-11-19T04:23:39.036Z,21.70
2022-11-19T04:26:05.600Z,21.80
2022-11-19T04:28:32.089Z,21.33
2022-11-19T04:30:58.509Z,22.70
2022-11-19T04:33:24.978Z,21.90
2022-11-19T04:35:51.410Z,20.27
2022-11-19T04:38:17.855Z,23.67
2022-11-19T04:40:44.304Z,21.75
2022-11-19T04:43:10.731Z,22.50
2022-11-19T04:45:37.184Z,22.08
2022-11-19T04:48:03.776Z,20.58
2022-11-19T04:50:30.305Z,22.07
2022-11-19T04:52:56.737Z,20.88
2022-11-19T04:55:23.167Z,19.95
2022-11-19T04:57:51.801Z,22.40
2022-11-19T05:00:18.893Z,22.10
2022-11-19T05:02:45.753Z,19.63
2022-11-19T05:05:12.282Z,19.80
2022-11-19T05:07:38.816Z,23.48
2022-11-19T05:10:05.816Z,23.52
2022-11-19T05:12:32.260Z,19.25
2022-11-19T05:14:58.749Z,22.77
2022-11-19T05:17:25.197Z,23.40
2022-11-19T05:19:51.723Z,20.35
2022-11-19T05:22:18.155Z,21.88
2022-11-19T05:24:44.559Z,23.35
2022-11-19T05:27:11.053Z,24.77
2022-11-19T05:29:37.504Z,20.10
2022-11-19T05:32:04.241Z,21.42
2022-11-19T05:34:30.693Z,20.05
2022-11-19T05:36:57.115Z,20.00
2022-11-19T05:39:23.973Z,21.00
2022-11-19T05:41:50.997Z,20.75
2022-11-19T05:44:18.014Z,23.25
2022-11-19T05:46:44.628Z,23.10
2022-11-19T05:49:11.705Z,24.38
2022-11-19T05:51:38.193Z,20.23
2022-11-19T05:54:04.778Z,22.48
2022-11-19T05:56:31.243Z,21.85
2022-11-19T05:58:57.727Z,22.25
2022-11-19T06:01:29.649Z,20.30
2022-11-19T06:03:56.556Z,19.90
2022-11-19T06:06:23.128Z,20.23
2022-11-19T06:08:49.917Z,20.65
2022-11-19T06:11:34.917Z,19.25
2022-11-19T06:14:01.528Z,18.52
2022-11-19T06:16:28.033Z,18.97
2022-11-19T06:18:54.703Z,23.38
2022-11-19T06:21:21.144Z,24.05
2022-11-19T06:23:47.625Z,20.75
2022-11-19T06:26:25.808Z,21.23
2022-11-19T06:28:52.505Z,19.70
2022-11-19T06:31:19.568Z,19.08
2022-11-19T06:33:46.025Z,21.38
2022-11-19T06:36:13.159Z,17.35
2022-11-19T06:38:39.982Z,18.83
2022-11-19T06:41:06.820Z,18.17
2022-11-19T06:43:33.411Z,19.02
2022-11-19T06:45:59.879Z,17.88
2022-11-19T06:48:26.343Z,18.98
2022-11-19T06:50:52.876Z,20.13
2022-11-19T06:53:19.353Z,22.27
2022-11-19T06:55:45.789Z,19.63
2022-11-19T06:58:13.394Z,18.73
2022-11-19T07:00:40.264Z,19.83
2022-11-19T07:03:07.520Z,22.10
2022-11-19T07:05:33.990Z,18.83
2022-11-19T07:08:03.224Z,19.33
2022-11-19T07:10:30.397Z,18.85
2022-11-19T07:12:56.832Z,16.15
2022-11-19T07:15:23.264Z,20.45
2022-11-19T07:17:49.669Z,20.87
2022-11-19T07:20:16.736Z,20.10
2022-11-19T07:22:43.557Z,19.45
2022-11-19T07:25:13.807Z,18.83
2022-11-19T07:27:43.301Z,20.85
2022-11-19T07:30:10.196Z,17.67
2022-11-19T07:32:36.912Z,18.40
2022-11-19T07:35:03.480Z,19.98
2022-11-19T07:37:30.007Z,20.05
2022-11-19T07:39:56.428Z,19.17
2022-11-19T07:42:52.197Z,20.83
2022-11-19T07:45:21.617Z,17.90
2022-11-19T07:47:48.876Z,18.70
2022-11-19T07:50:17.108Z,17.92
2022-11-19T07:52:43.715Z,17.80
2022-11-19T07:55:10.774Z,20.30
2022-11-19T07:57:37.260Z,21.50
2022-11-19T08:00:07.441Z,16.98
2022-11-19T08:02:33.918Z,21.13
2022-11-19T08:05:00.391Z,20.83
2022-11-19T08:07:26.897Z,19.20
2022-11-19T08:09:53.361Z,21.13
2022-11-19T08:12:19.838Z,22.95
2022-11-19T08:14:46.304Z,21.35
2022-11-19T08:17:31.072Z,22.00
2022-11-19T08:19:57.527Z,19.03
2022-11-19T08:22:24.033Z,21.40
2022-11-19T08:24:50.515Z,20.48
2022-11-19T08:27:17.340Z,21.20
2022-11-19T08:29:43.819Z,18.10
2022-11-19T08:32:10.343Z,20.20
2022-11-19T08:34:36.828Z,16.60
2022-11-19T08:37:03.424Z,19.15
2022-11-19T08:39:30.702Z,19.90
2022-11-19T08:42:15.415Z,20.42
2022-11-19T08:44:41.924Z,19.00
2022-11-19T08:47:08.349Z,19.15
2022-11-19T08:49:34.840Z,22.20
2022-11-19T08:52:02.632Z,20.52
2022-11-19T08:54:29.126Z,22.35
2022-11-19T08:56:55.557Z,18.00
2022-11-19T08:59:22.395Z,20.67
2022-11-19T09:01:50.420Z,19.95
2022-11-19T09:04:17.531Z,16.52
2022-11-19T09:06:44.166Z,17.58
2022-11-19T09:09:10.632Z,16.47
2022-11-19T09:11:42.218Z,19.58
2022-11-19T09:14:09.692Z,15.45
2022-11-19T09:16:36.364Z,18.83
2022-11-19T09:19:02.824Z,17.73
2022-11-19T09:21:29.372Z,16.23
2022-11-19T09:23:55.820Z,17.05
2022-11-19T09:26:22.326Z,16.98
2022-11-19T09:28:49.424Z,17.13
2022-11-19T09:31:18.251Z,14.80
2022-11-19T09:33:48.294Z,15.90
2022-11-19T09:36:15.421Z,14.05
2022-11-19T09:38:42.465Z,12.88
2022-11-19T09:41:18.067Z,16.02
2022-11-19T09:44:01.493Z,17.63
2022-11-19T09:47:03.455Z,14.27
2022-11-19T09:49:38.763Z,14.50
2022-11-19T09:52:13.803Z,13.77
2022-11-19T09:54:46.418Z,16.15
2022-11-19T09:57:18.501Z,15.60
2022-11-19T09:59:44.970Z,13.90
2022-11-19T10:02:20.239Z,13.30
2022-11-19T10:04:48.546Z,14.68
2022-11-19T10:07:24.215Z,13.07
2022-11-19T10:10:12.816Z,14.23
2022-11-19T10:13:14.097Z,12.77
2022-11-19T10:15:52.680Z,13.10
2022-11-19T10:18:28.540Z,13.30
2022-11-19T10:21:00.352Z,11.65
2022-11-19T10:24:17.847Z,13.45
2022-11-19T10:26:54.922Z,11.10
2022-11-19T10:29:25.921Z,10.10
2022-11-19T10:31:52.825Z,11.15
2022-11-19T10:34:28.065Z,14.35
2022-11-19T10:37:03.192Z,11.48
2022-11-19T10:39:37.121Z,11.60
2022-11-19T10:42:26.368Z,12.63
2022-11-19T10:45:01.945Z,11.85
2022-11-19T10:47:53.312Z,13.00
2022-11-19T10:50:24.777Z,10.82
2022-11-19T10:53:05.120Z,11.03
2022-11-19T10:55:35.102Z,13.10
2022-11-19T10:58:10.651Z,10.73
2022-11-19T11:00:40.028Z,11.25
2022-11-19T11:03:32.328Z,11.20
2022-11-19T11:06:06.442Z,12.07
2022-11-19T11:08:34.080Z,13.15
2022-11-19T11:11:01.290Z,11.25
2022-11-19T11:13:56.374Z,10.95
2022-11-19T11:16:38.501Z,11.82
2022-11-19T11:19:13.752Z,10.20
2022-11-19T11:21:42.936Z,11.15
2022-11-19T11:24:12.257Z,10.02
2022-11-19T11:26:40.301Z,11.95
2022-11-19T11:29:24.209Z,10.68
2022-11-19T11:31:51.008Z,11.40
2022-11-19T11:34:26.178Z,11.38
2022-11-19T11:36:53.828Z,12.15
2022-11-19T11:39:29.352Z,13.27
2022-11-19T11:42:06.662Z,10.23
2022-11-19T11:44:37.064Z,9.57
2022-11-19T11:47:16.325Z,11.73
2022-11-19T11:49:45.419Z,10.52
2022-11-19T11:52:11.841Z,10.57
2022-11-19T11:54:54.127Z,10.93
2022-11-19T11:57:24.368Z,11.43
2022-11-19T11:59:50.846Z,9.80
2022-11-19T12:02:22.473Z,8.80
2022-11-19T12:04:51.035Z,7.78
2022-11-19T12:07:37.513Z,9.35
2022-11-19T12:10:25.975Z,9.00
2022-11-19T12:13:10.793Z,9.20
2022-11-19T12:15:40.382Z,9.40
2022-11-19T12:18:28.221Z,9.05
2022-11-19T12:21:14.887Z,9.63
2022-11-19T12:23:56.698Z,6.90
2022-11-19T12:26:47.734Z,6.43
2022-11-19T12:29:17.367Z,10.85
2022-11-19T12:31:53.928Z,9.07
2022-11-19T12:34:22.996Z,7.22
2022-11-19T12:36:57.221Z,6.97
2022-11-19T12:39:47.087Z,8.25
2022-11-19T12:42:42.916Z,10.00
2022-11-19T12:45:38.879Z,9.27
2022-11-19T12:48:15.274Z,7.65
2022-11-19T12:51:12.854Z,7.23
2022-11-19T12:53:52.153Z,8.80
2022-11-19T12:56:32.757Z,7.30
2022-11-19T12:59:21.735Z,6.03
2022-11-19T13:01:51.375Z,6.53
2022-11-19T13:04:32.260Z,7.70
2022-11-19T13:07:07.907Z,6.72
2022-11-19T13:10:00.491Z,5.80
2022-11-19T13:12:35.985Z,7.53
2022-11-19T13:15:08.427Z,5.88
2022-11-19T13:17:40.393Z,6.80
2022-11-19T13:20:15.160Z,5.72
2022-11-19T13:22:45.846Z,4.25
2022-11-19T13:25:28.934Z,7.15
2022-11-19T13:27:57.868Z,5.05
2022-11-19T13:30:26.905Z,4.67
2022-11-19T13:33:05.241Z,5.55
2022-11-19T13:35:34.339Z,4.78
2022-11-19T13:38:22.325Z,6.50
2022-11-19T13:40:55.393Z,5.82
2022-11-19T13:43:41.598Z,5.20
2022-11-19T13:46:10.715Z,5.70
2022-11-19T13:48:55.029Z,6.40
2022-11-19T13:51:38.047Z,4.65
2022-11-19T13:54:08.140Z,7.47
2022-11-19T13:56:47.435Z,5.77
2022-11-19T13:59:46.478Z,5.32
2022-11-19T14:02:52.962Z,3.97
2022-11-19T14:06:18.672Z,3.97
2022-11-19T14:08:53.840Z,5.05
2022-11-19T14:11:38.413Z,5.23
2022-11-19T14:14:42.126Z,4.63
2022-11-19T14:17:39.412Z,4.75
2022-11-19T14:21:10.650Z,4.53
2022-11-19T14:23:56.459Z,4.30
2022-11-19T14:26:41.343Z,5.13
2022-11-19T14:29:25.883Z,5.70
2022-11-19T14:32:12.624Z,4.32
2022-11-19T14:34:44.205Z,4.95
2022-11-19T14:37:36.916Z,4.43
2022-11-19T14:40:12.416Z,4.03
2022-11-19T14:43:19.374Z,3.30
2022-11-19T14:46:00.888Z,4.15
2022-11-19T14:48:33.239Z,5.68
2022-11-19T14:51:06.272Z,6.18
2022-11-19T14:53:33.308Z,5.20
2022-11-19T14:56:01.580Z,4.82
2022-11-19T14:58:28.036Z,5.90
2022-11-19T15:01:10.460Z,5.00
2022-11-19T15:03:37.948Z,6.53
2022-11-19T15:06:07.772Z,6.10
2022-11-19T15:08:50.500Z,5.18
2022-11-19T15:11:18.158Z,8.20
2022-11-19T15:13:46.555Z,4.70
2022-11-19T15:16:17.205Z,4.78
2022-11-19T15:19:00.113Z,5.90
2022-11-19T15:21:48.309Z,7.25
2022-11-19T15:24:49.605Z,5.82
2022-11-19T15:27:28.040Z,6.00
2022-11-19T15:30:25.685Z,5.05
2022-11-19T15:32:57.885Z,4.93
2022-11-19T15:36:02.004Z,5.63
2022-11-19T15:38:53.185Z,7.63
2022-11-19T15:41:24.408Z,6.28
2022-11-19T15:43:59.205Z,6.10
2022-11-19T15:46:50.484Z,4.57
2022-11-19T15:49:23.081Z,7.68
2022-11-19T15:52:17.354Z,6.25
2022-11-19T15:54:44.705Z,7.07
2022-11-19T15:57:17.244Z,7.35
2022-11-19T15:59:48.964Z,9.77
2022-11-19T16:02:20.374Z,9.40
2022-11-19T16:04:50.283Z,6.85
2022-11-19T16:07:24.229Z,6.05
2022-11-19T16:09:51.267Z,6.97
2022-11-19T16:12:39.890Z,6.90
2022-11-19T16:15:42.816Z,5.57
2022-11-19T16:18:18.044Z,6.85
2022-11-19T16:20:47.908Z,7.28
2022-11-19T16:23:25.485Z,5.63
2022-11-19T16:25:53.189Z,8.63
2022-11-19T16:28:24.571Z,6.90
2022-11-19T16:30:53.974Z,6.40
2022-11-19T16:33:26.109Z,8.65
2022-11-19T16:36:09.741Z,8.27
2022-11-19T16:38:38.169Z,10.73
2022-11-19T16:41:24.315Z,10.35
2022-11-19T16:43:51.088Z,8.23
2022-11-19T16:46:20.976Z,10.05
2022-11-19T16:48:50.463Z,8.95
2022-11-19T16:51:41.517Z,10.17
2022-11-19T16:54:10.600Z,11.88
2022-11-19T16:56:44.011Z,9.85
2022-11-19T16:59:20.361Z,16.02
2022-11-19T17:01:56.385Z,9.15
2022-11-19T17:04:26.982Z,12.60
2022-11-19T17:06:53.668Z,9.73
2022-11-19T17:09:41.573Z,8.73
2022-11-19T17:12:28.814Z,8.63
2022-11-19T17:14:58.157Z,9.00
2022-11-19T17:17:39.961Z,9.40
2022-11-19T17:20:32.258Z,9.00
2022-11-19T17:23:00.117Z,8.38
2022-11-19T17:25:26.846Z,8.63
2022-11-19T17:27:56.406Z,7.75
2022-11-19T17:30:24.033Z,7.40
2022-11-19T17:33:05.037Z,7.10
2022-11-19T17:35:31.468Z,9.02
2022-11-19T17:38:08.791Z,8.43
2022-11-19T17:40:35.466Z,8.90
2022-11-19T17:43:20.630Z,7.17
2022-11-19T17:45:47.156Z,8.18
2022-11-19T17:48:25.134Z,11.35
2022-11-19T17:50:51.986Z,10.32
2022-11-19T17:53:23.473Z,8.40
2022-11-19T17:55:54.001Z,10.87
2022-11-19T17:58:21.017Z,10.68
2022-11-19T18:00:47.640Z,12.85
2022-11-19T18:03:15.391Z,11.00
2022-11-19T18:05:47.192Z,11.05
2022-11-19T18:08:14.757Z,9.23
2022-11-19T18:10:44.145Z,10.55
2022-11-19T18:13:14.388Z,13.10
2022-11-19T18:15:41.700Z,11.35
2022-11-19T18:18:08.182Z,9.77
2022-11-19T18:20:34.718Z,8.57
2022-11-19T18:23:01.244Z,8.60
2022-11-19T18:25:27.866Z,9.20
2022-11-19T18:27:54.412Z,9.75
2022-11-19T18:30:20.844Z,7.75
2022-11-19T18:32:47.363Z,12.63
2022-11-19T18:35:16.700Z,8.43
2022-11-19T18:37:43.863Z,9.80
2022-11-19T18:40:11.894Z,11.25
2022-11-19T18:42:38.803Z,10.10
2022-11-19T18:45:06.408Z,9.40
2022-11-19T18:47:32.850Z,10.77
2022-11-19T18:49:59.379Z,8.88
2022-11-19T18:52:25.840Z,10.85
2022-11-19T18:54:52.339Z,9.70
2022-11-19T18:57:18.789Z,10.50
2022-11-19T18:59:45.358Z,9.52
2022-11-19T19:02:11.958Z,13.18
2022-11-19T19:04:38.616Z,9.30
2022-11-19T19:07:05.302Z,9.00
2022-11-19T19:09:32.097Z,11.60
2022-11-19T19:12:17.264Z,10.35
2022-11-19T19:14:49.122Z,10.38
2022-11-19T19:17:16.081Z,9.63
2022-11-19T19:19:42.621Z,9.13
2022-11-19T19:22:09.119Z,8.87
2022-11-19T19:24:36.064Z,10.10
2022-11-19T19:27:03.441Z,9.20
2022-11-19T19:29:30.057Z,11.07
2022-11-19T19:31:57.971Z,11.90
2022-11-19T19:34:24.498Z,7.70
2022-11-19T19:36:53.339Z,8.65
2022-11-19T19:39:20.455Z,12.43
2022-11-19T19:41:47.157Z,9.77
2022-11-19T19:44:13.608Z,9.38
2022-11-19T19:46:40.260Z,8.67
2022-11-19T19:49:06.810Z,8.85
2022-11-19T19:51:33.352Z,8.70
2022-11-19T19:54:00.586Z,13.63
2022-11-19T19:56:29.589Z,14.35
2022-11-19T19:58:57.258Z,11.80
2022-11-19T20:01:27.106Z,10.00
2022-11-19T20:03:55.142Z,8.30
2022-11-19T20:06:23.336Z,7.68
2022-11-19T20:08:50.058Z,12.82
2022-11-19T20:11:21.609Z,7.97
2022-11-19T20:13:48.107Z,8.85
2022-11-19T20:16:18.431Z,10.45
2022-11-19T20:18:47.368Z,10.63
2022-11-19T20:21:19.793Z,7.80
2022-11-19T20:23:46.966Z,8.03
2022-11-19T20:26:18.845Z,10.20
2022-11-19T20:28:45.770Z,9.93
2022-11-19T20:31:20.160Z,9.20
2022-11-19T20:33:50.827Z,10.82
2022-11-19T20:36:17.534Z,9.20
2022-11-19T20:38:47.588Z,11.25
2022-11-19T20:41:34.037Z,9.75
2022-11-19T20:44:20.266Z,9.75
2022-11-19T20:46:58.922Z,11.52
2022-11-19T20:49:27.711Z,10.40
2022-11-19T20:51:54.969Z,12.73
2022-11-19T20:54:22.023Z,15.10
2022-11-19T20:56:49.493Z,15.23
2022-11-19T20:59:16.490Z,15.82
2022-11-19T21:01:43.225Z,13.60
2022-11-19T21:04:11.448Z,11.07
2022-11-19T21:06:38.669Z,13.75
2022-11-19T21:09:05.633Z,15.55
2022-11-19T21:11:33.168Z,12.45
2022-11-19T21:13:59.975Z,15.23
2022-11-19T21:16:28.767Z,13.57
2022-11-19T21:18:55.405Z,14.35
2022-11-19T21:21:24.149Z,13.00
2022-11-19T21:23:51.798Z,11.18
2022-11-19T21:26:26.218Z,13.63
2022-11-19T21:28:55.580Z,14.95
2022-11-19T21:31:56.495Z,13.45
2022-11-19T21:34:23.083Z,17.17
2022-11-19T21:36:50.385Z,16.08
2022-11-19T21:39:18.055Z,17.83
2022-11-19T21:41:44.823Z,15.13
2022-11-19T21:44:13.333Z,14.52
2022-11-19T21:46:43.156Z,15.52
2022-11-19T21:49:09.944Z,12.65
2022-11-19T21:51:36.403Z,13.73
2022-11-19T21:54:02.962Z,16.58
2022-11-19T21:56:33.790Z,14.07
2022-11-19T21:59:04.672Z,17.40
2022-11-19T22:01:31.094Z,17.80
2022-11-19T22:03:57.518Z,18.13
2022-11-19T22:06:24.030Z,15.40
2022-11-19T22:08:50.767Z,12.82
2022-11-19T22:11:29.387Z,19.17
2022-11-19T22:14:07.511Z,17.23
2022-11-19T22:16:39.605Z,15.73
2022-11-19T22:19:06.285Z,15.43
2022-11-19T22:21:33.465Z,13.70
2022-11-19T22:24:00.136Z,14.18
2022-11-19T22:26:27.557Z,14.02
2022-11-19T22:28:54.623Z,15.07
2022-11-19T22:31:21.395Z,13.98
2022-11-19T22:33:51.496Z,16.77
2022-11-19T22:36:19.404Z,17.38
2022-11-19T22:38:45.905Z,14.95
2022-11-19T22:41:15.206Z,15.70
2022-11-19T22:43:42.222Z,14.50
2022-11-19T22:46:11.005Z,15.95
2022-11-19T22:48:38.032Z,12.88
2022-11-19T22:51:24.363Z,12.52
2022-11-19T22:53:52.705Z,13.90
2022-11-19T22:56:29.676Z,12.07
2022-11-19T22:58:58.349Z,15.73
2022-11-19T23:01:30.925Z,13.93
2022-11-19T23:04:01.610Z,15.40
2022-11-19T23:06:28.390Z,13.57
2022-11-19T23:08:55.396Z,11.57
2022-11-19T23:11:42.357Z,12.75
2022-11-19T23:14:12.476Z,10.50
2022-11-19T23:16:40.258Z,10.68
2022-11-19T23:19:07.781Z,10.70
2022-11-19T23:21:34.744Z,12.25
2022-11-19T23:24:01.196Z,10.98
2022-11-19T23:26:30.699Z,11.15
2022-11-19T23:28:57.498Z,11.27
2022-11-19T23:31:26.896Z,11.07
2022-11-19T23:33:58.793Z,15.20
2022-11-19T23:36:31.623Z,13.10
2022-11-19T23:38:59.810Z,12.43
2022-11-19T23:41:26.901Z,11.85
2022-11-19T23:43:55.547Z,11.67
2022-11-19T23:46:33.169Z,12.95
2022-11-19T23:49:00.717Z,12.52
2022-11-19T23:51:29.843Z,14.32
2022-11-19T23:53:57.282Z,13.75
2022-11-19T23:56:25.348Z,13.73
2022-11-19T23:58:52.879Z,14.70
